Time;durP1;ratioP1;P1;durP2;ratioP2;P2;SDS_P1;SDS_P2;PMS_P1;PMS_P2;Temp;Humidity;BMP_temperature;BMP_pressure;BME280_temperature;BME280_humidity;BME280_pressure;Samples;Min_cycle;Max_cycle;Signal;HPM_P1;HPM_P2
2023/02/23 00:01:40;;;;;;;69.23;43.20;;;9.20;99.90;;;;;;5069182;28;20025;-51
2023/02/23 00:04:07;;;;;;;67.53;41.30;;;9.20;99.90;;;;;;5068312;28;20047;-49
2023/02/23 00:06:35;;;;;;;71.07;42.40;;;9.20;99.90;;;;;;5067988;28;20090;-50
2023/02/23 00:09:21;;;;;;;72.77;43.50;;;9.20;99.90;;;;;;5068799;28;20040;-47
2023/02/23 00:11:54;;;;;;;69.57;43.17;;;9.20;99.90;;;;;;5068964;28;20047;-51
2023/02/23 00:14:23;;;;;;;70.73;43.33;;;9.20;99.90;;;;;;5068737;28;20434;-48
2023/02/23 00:16:49;;;;;;;73.57;43.60;;;9.20;99.90;;;;;;5068913;28;20037;-54
2023/02/23 00:19:14;;;;;;;71.70;43.47;;;9.20;99.90;;;;;;5067622;28;20047;-52
2023/02/23 00:21:40;;;;;;;79.57;44.40;;;9.10;99.90;;;;;;5068836;28;20112;-54
2023/02/23 00:24:13;;;;;;;76.33;45.50;;;9.20;99.90;;;;;;5068372;28;20485;-54
2023/02/23 00:26:41;;;;;;;85.17;47.47;;;9.10;99.90;;;;;;5069153;28;20049;-51
2023/02/23 00:29:27;;;;;;;86.60;48.20;;;9.10;99.90;;;;;;5050704;28;20039;-51
2023/02/23 00:31:54;;;;;;;88.20;48.23;;;9.00;99.90;;;;;;5050484;28;20039;-49
2023/02/23 00:34:20;;;;;;;88.80;49.00;;;9.00;99.90;;;;;;5067408;28;20024;-48
2023/02/23 00:36:50;;;;;;;88.03;49.90;;;9.00;99.90;;;;;;5053928;28;20028;-52
2023/02/23 00:39:17;;;;;;;96.53;51.57;;;9.00;99.90;;;;;;5054243;28;20040;-49
2023/02/23 00:41:45;;;;;;;95.57;49.67;;;8.90;99.90;;;;;;5072843;28;20477;-49
2023/02/23 00:44:10;;;;;;;97.97;51.97;;;8.90;99.90;;;;;;5072148;28;20098;-51
2023/02/23 00:46:36;;;;;;;100.27;50.93;;;8.90;99.90;;;;;;5072747;28;20029;-50
2023/02/23 00:49:03;;;;;;;104.50;52.37;;;8.90;99.90;;;;;;5072285;28;20021;-52
2023/02/23 00:51:29;;;;;;;103.50;52.00;;;8.90;99.90;;;;;;5053800;28;20029;-50
2023/02/23 00:53:57;;;;;;;105.77;54.40;;;8.90;99.90;;;;;;5054506;28;20318;-48
2023/02/23 00:56:22;;;;;;;100.77;53.40;;;8.90;99.90;;;;;;5054185;28;20082;-51
2023/02/23 00:58:49;;;;;;;106.17;53.53;;;8.80;99.90;;;;;;5054506;28;20111;-51
2023/02/23 01:01:15;;;;;;;107.93;53.33;;;8.90;99.90;;;;;;5072217;28;20037;-52
2023/02/23 01:03:42;;;;;;;101.50;53.20;;;8.90;99.90;;;;;;5054392;28;20063;-53
2023/02/23 01:06:11;;;;;;;109.63;53.03;;;8.90;99.90;;;;;;5053165;28;20119;-51
2023/02/23 01:08:40;;;;;;;108.22;52.25;;;8.90;99.90;;;;;;5054007;28;20036;-52
2023/02/23 01:11:08;;;;;;;104.25;52.88;;;8.90;99.90;;;;;;5053658;28;20110;-49
2023/02/23 01:13:36;;;;;;;101.30;51.90;;;8.80;99.90;;;;;;5072187;28;20051;-51
2023/02/23 01:16:10;;;;;;;105.30;52.87;;;8.90;99.90;;;;;;5053871;28;20020;-51
2023/02/23 01:18:37;;;;;;;101.93;51.90;;;8.90;99.90;;;;;;5072118;28;20039;-53
2023/02/23 01:21:06;;;;;;;102.40;51.93;;;8.90;99.90;;;;;;5070821;28;20048;-51
2023/02/23 01:23:32;;;;;;;99.57;51.40;;;8.90;99.90;;;;;;5072022;28;20044;-52
2023/02/23 01:25:58;;;;;;;98.37;52.03;;;8.90;99.90;;;;;;5053717;28;20036;-45
2023/02/23 01:28:24;;;;;;;98.23;51.50;;;9.00;99.90;;;;;;5047657;28;20039;-51
2023/02/23 01:30:50;;;;;;;104.60;52.80;;;9.00;99.90;;;;;;5051543;28;20497;-50
2023/02/23 01:33:16;;;;;;;100.23;53.30;;;9.00;99.90;;;;;;5033446;28;20025;-50
2023/02/23 01:35:42;;;;;;;104.70;52.87;;;9.00;99.90;;;;;;5032653;28;20021;-48
2023/02/23 01:38:09;;;;;;;97.20;52.10;;;9.00;99.90;;;;;;5051692;28;20109;-49
2023/02/23 01:40:37;;;;;;;105.73;52.27;;;9.00;99.90;;;;;;5033589;28;20453;-48
2023/02/23 01:43:15;;;;;;;101.10;50.83;;;9.00;99.90;;;;;;5033982;28;20029;-50
2023/02/23 01:45:43;;;;;;;110.07;53.23;;;9.00;99.90;;;;;;5051194;28;20482;-48
2023/02/23 01:48:33;;;;;;;111.23;54.47;;;9.00;99.90;;;;;;5051670;28;20489;-50
2023/02/23 01:51:04;;;;;;;116.78;54.47;;;9.00;99.90;;;;;;5050526;28;20036;-53
2023/02/23 01:53:35;;;;;;;118.93;55.13;;;8.90;99.90;;;;;;5051622;28;20118;-52
2023/02/23 01:56:12;;;;;;;119.87;55.27;;;9.00;99.90;;;;;;5051589;28;20060;-52
2023/02/23 01:58:46;;;;;;;117.27;54.00;;;8.90;99.90;;;;;;5033357;28;20392;-50
2023/02/23 02:01:12;;;;;;;116.03;55.33;;;8.90;99.90;;;;;;5033242;28;20035;-47
2023/02/23 02:03:45;;;;;;;115.97;53.37;;;8.90;99.90;;;;;;5033673;28;20044;-51
2023/02/23 02:06:14;;;;;;;119.20;52.57;;;9.00;99.90;;;;;;5050690;28;20025;-51
2023/02/23 02:08:45;;;;;;;112.00;54.72;;;9.00;99.90;;;;;;5050927;28;20389;-52
2023/02/23 02:11:35;;;;;;;103.27;51.60;;;9.00;99.90;;;;;;5033143;28;20087;-49
2023/02/23 02:14:11;;;;;;;109.97;53.30;;;9.00;99.90;;;;;;5050814;28;20469;-52
2023/02/23 02:17:13;;;;;;;103.20;52.17;;;9.00;99.90;;;;;;5051259;28;20090;-48
2023/02/23 02:19:49;;;;;;;106.07;52.67;;;8.90;99.90;;;;;;5049879;28;20100;-49
2023/02/23 02:22:33;;;;;;;105.67;51.47;;;9.00;99.90;;;;;;5033409;28;20040;-51
2023/02/23 02:25:11;;;;;;;108.27;50.50;;;9.00;99.90;;;;;;5032547;28;20098;-51
2023/02/23 02:27:42;;;;;;;111.87;51.97;;;8.90;99.90;;;;;;5051114;28;20393;-47
2023/02/23 02:30:28;;;;;;;107.30;53.77;;;8.90;99.90;;;;;;5050323;28;20055;-48
2023/02/23 02:33:16;;;;;;;104.63;53.00;;;8.90;99.90;;;;;;5051039;28;20114;-52
2023/02/23 02:36:03;;;;;;;104.53;52.73;;;8.90;99.90;;;;;;5031342;28;20419;-48
2023/02/23 02:38:34;;;;;;;106.43;52.60;;;8.80;99.90;;;;;;5032644;28;20027;-50
2023/02/23 02:41:16;;;;;;;102.43;53.63;;;8.90;99.90;;;;;;5050332;28;20124;-52
2023/02/23 02:43:57;;;;;;;108.77;54.03;;;8.90;99.90;;;;;;5050553;28;20087;-50
2023/02/23 02:46:33;;;;;;;110.40;54.13;;;8.90;99.90;;;;;;5032307;28;20052;-50
2023/02/23 02:49:10;;;;;;;109.67;55.30;;;8.80;99.90;;;;;;5049922;28;20044;-51
2023/02/23 02:51:47;;;;;;;114.40;55.70;;;8.90;99.90;;;;;;5049809;28;20025;-51
2023/02/23 02:54:13;;;;;;;112.17;54.57;;;8.90;99.90;;;;;;5049920;28;20032;-52
2023/02/23 02:56:42;;;;;;;105.70;53.43;;;8.80;99.90;;;;;;5032039;28;20025;-52
2023/02/23 04:18:03;;;;;;;135.93;58.80;;;8.70;99.90;;;;;;5048914;28;20037;-53
2023/02/23 04:20:29;;;;;;;130.07;60.47;;;8.70;99.90;;;;;;5047440;28;20025;-52
2023/02/23 04:22:54;;;;;;;135.97;59.70;;;8.70;99.90;;;;;;5049033;28;20029;-53
2023/02/23 04:25:23;;;;;;;131.57;60.43;;;8.60;99.90;;;;;;5048847;28;20040;-47
2023/02/23 04:27:51;;;;;;;143.57;60.77;;;8.60;99.90;;;;;;5049029;28;20029;-53
2023/02/23 04:30:19;;;;;;;137.77;61.33;;;8.60;99.90;;;;;;5063007;22;20037;-54
2023/02/23 04:32:45;;;;;;;135.53;60.13;;;8.60;99.90;;;;;;5046836;28;20499;-53
2023/02/23 04:35:12;;;;;;;133.77;60.47;;;8.60;99.90;;;;;;5047300;28;20071;-53
2023/02/23 04:37:38;;;;;;;134.50;62.60;;;8.60;99.90;;;;;;5048762;28;20126;-53
2023/02/23 04:40:06;;;;;;;128.53;59.77;;;8.60;99.90;;;;;;5048461;28;20083;-53
2023/02/23 04:42:31;;;;;;;129.63;62.13;;;8.60;99.90;;;;;;5028900;28;20028;-54
2023/02/23 04:44:58;;;;;;;132.37;61.40;;;8.60;99.90;;;;;;5028432;28;20104;-52
2023/02/23 04:47:23;;;;;;;145.43;61.47;;;8.60;99.90;;;;;;5028333;28;20402;-54
2023/02/23 04:49:49;;;;;;;134.03;61.53;;;8.60;99.90;;;;;;5027432;28;20223;-53
2023/02/23 04:52:15;;;;;;;130.77;59.13;;;8.60;99.90;;;;;;5013929;28;20069;-54
2023/02/23 04:54:42;;;;;;;127.87;58.93;;;8.60;99.90;;;;;;5008329;28;20147;-50
2023/02/23 04:57:08;;;;;;;129.33;57.73;;;8.60;99.90;;;;;;5008330;28;20030;-53
2023/02/23 04:59:34;;;;;;;141.63;60.70;;;8.60;99.90;;;;;;5008341;28;20037;-52
2023/02/23 05:02:00;;;;;;;128.53;59.80;;;8.60;99.90;;;;;;5008674;28;20548;-54
2023/02/23 05:04:26;;;;;;;130.03;60.87;;;8.60;99.90;;;;;;5007372;28;20030;-52
2023/02/23 05:06:52;;;;;;;124.73;60.67;;;8.60;99.90;;;;;;5008818;28;20113;-51
2023/02/23 05:09:17;;;;;;;128.40;58.20;;;8.60;99.90;;;;;;5021624;28;20029;-52
2023/02/23 05:11:43;;;;;;;122.50;58.20;;;8.60;99.90;;;;;;5028138;28;20081;-52
2023/02/23 05:14:11;;;;;;;129.00;59.03;;;8.60;99.90;;;;;;5027969;28;20045;-50
2023/02/23 05:16:38;;;;;;;122.93;58.70;;;8.60;99.90;;;;;;5027825;28;20033;-51
2023/02/23 05:19:04;;;;;;;125.80;58.73;;;8.50;99.90;;;;;;5027716;28;20026;-53
2023/02/23 05:21:30;;;;;;;125.73;57.80;;;8.50;99.90;;;;;;5028876;28;20040;-49
2023/02/23 05:23:56;;;;;;;124.70;57.93;;;8.50;99.90;;;;;;5031715;28;20025;-53
2023/02/23 05:26:22;;;;;;;119.60;57.70;;;8.50;99.90;;;;;;5031372;28;20135;-54
2023/02/23 05:28:47;;;;;;;125.17;57.80;;;8.50;99.90;;;;;;5031828;28;20029;-54
2023/02/23 05:31:13;;;;;;;129.27;59.97;;;8.40;99.90;;;;;;5031048;28;20037;-51
2023/02/23 05:33:42;;;;;;;125.23;59.20;;;8.40;99.90;;;;;;5031544;28;20084;-51
2023/02/23 05:36:10;;;;;;;132.10;60.35;;;8.40;99.90;;;;;;5030483;28;20366;-52
2023/02/23 05:38:36;;;;;;;133.20;61.30;;;8.30;99.90;;;;;;5031069;28;20041;-49
2023/02/23 05:41:11;;;;;;;139.80;60.67;;;8.30;99.90;;;;;;5031584;28;20338;-53
2023/02/23 05:43:36;;;;;;;136.00;60.13;;;8.40;99.90;;;;;;5031476;28;20029;-54
2023/02/23 05:46:13;;;;;;;138.30;60.97;;;8.30;99.90;;;;;;5031422;28;20421;-51
2023/02/23 05:48:39;;;;;;;146.97;65.43;;;8.30;99.90;;;;;;5031496;28;20033;-53
2023/02/23 05:51:08;;;;;;;154.43;65.47;;;8.30;99.90;;;;;;5030152;28;20044;-52
2023/02/23 05:53:34;;;;;;;148.90;63.25;;;8.30;99.90;;;;;;5031631;28;20026;-54
2023/02/23 05:56:05;;;;;;;150.50;66.13;;;8.20;99.90;;;;;;5031481;28;20429;-52
2023/02/23 05:58:30;;;;;;;149.90;65.20;;;8.20;99.90;;;;;;5031743;28;20141;-55
2023/02/23 06:00:56;;;;;;;157.50;66.03;;;8.30;99.90;;;;;;5028736;28;20068;-53
2023/02/23 06:03:22;;;;;;;147.10;63.67;;;8.20;99.90;;;;;;5011434;28;20080;-53
2023/02/23 06:05:57;;;;;;;144.33;65.67;;;8.20;99.90;;;;;;5010523;28;20442;-54
2023/02/23 06:08:24;;;;;;;153.57;65.03;;;8.20;99.90;;;;;;5011140;28;20475;-53
2023/02/23 06:10:50;;;;;;;140.57;63.17;;;8.20;99.90;;;;;;5010863;28;20096;-51
2023/02/23 06:13:16;;;;;;;153.33;66.13;;;8.20;99.90;;;;;;5028705;28;20037;-53
2023/02/23 06:15:42;;;;;;;153.07;64.27;;;8.20;99.90;;;;;;5030656;28;20052;-53
2023/02/23 06:18:08;;;;;;;153.17;65.00;;;8.20;99.90;;;;;;5024954;28;20080;-53
2023/02/23 06:20:35;;;;;;;153.20;64.07;;;8.20;99.90;;;;;;5010044;28;20498;-54
2023/02/23 06:23:00;;;;;;;152.37;64.97;;;8.20;99.90;;;;;;5010948;28;20026;-51
2023/02/23 06:25:26;;;;;;;155.30;64.87;;;8.30;99.90;;;;;;5010741;28;20034;-52
2023/02/23 06:27:53;;;;;;;136.83;62.30;;;8.20;99.90;;;;;;5011074;28;20029;-50
2023/02/23 06:30:19;;;;;;;152.13;62.73;;;8.20;99.90;;;;;;5017642;28;20021;-48
2023/02/23 06:32:45;;;;;;;139.37;61.43;;;8.30;99.90;;;;;;5021752;28;20034;-50
2023/02/23 06:35:14;;;;;;;136.38;60.30;;;8.30;99.90;;;;;;4990220;28;20034;-51
2023/02/23 06:37:40;;;;;;;146.43;60.60;;;8.20;99.90;;;;;;4991758;28;20050;-48
2023/02/23 06:40:06;;;;;;;148.20;62.47;;;8.20;99.90;;;;;;5010462;28;20331;-51
2023/02/23 06:42:34;;;;;;;149.47;59.43;;;8.20;99.90;;;;;;5010751;28;20033;-50
2023/02/23 06:45:03;;;;;;;160.43;60.70;;;8.20;99.90;;;;;;5009727;28;20080;-54
2023/02/23 06:47:29;;;;;;;155.60;60.42;;;8.10;99.90;;;;;;5010703;28;20160;-53
2023/02/23 06:49:55;;;;;;;154.57;60.53;;;8.10;99.90;;;;;;5009286;28;20514;-54
2023/02/23 06:52:22;;;;;;;157.70;62.63;;;8.10;99.90;;;;;;5010327;28;20041;-53
2023/02/23 06:54:48;;;;;;;169.90;62.10;;;8.10;99.90;;;;;;5010148;28;20498;-54
2023/02/23 06:57:15;;;;;;;170.73;63.73;;;8.20;99.90;;;;;;5010326;28;20099;-52
2023/02/23 06:59:41;;;;;;;160.87;62.67;;;8.20;99.90;;;;;;5010219;28;20084;-53
2023/02/23 07:02:11;;;;;;;158.97;61.83;;;8.20;99.90;;;;;;5010557;28;20025;-52
2023/02/23 07:04:36;;;;;;;159.10;61.47;;;8.20;99.90;;;;;;5009045;28;20471;-52
2023/02/23 07:07:02;;;;;;;163.53;62.97;;;8.20;99.90;;;;;;5010067;28;20060;-53
2023/02/23 07:09:28;;;;;;;167.23;63.57;;;8.10;99.90;;;;;;5009850;28;20049;-48
2023/02/23 07:11:54;;;;;;;165.97;61.70;;;8.20;99.90;;;;;;5010065;28;20052;-51
2023/02/23 07:14:19;;;;;;;166.20;60.93;;;8.20;99.90;;;;;;5009735;28;20040;-47
2023/02/23 07:16:45;;;;;;;169.97;60.50;;;8.20;99.90;;;;;;5013146;28;20056;-50
2023/02/23 07:19:11;;;;;;;174.67;60.57;;;8.20;99.90;;;;;;5029337;28;20048;-51
2023/02/23 07:21:37;;;;;;;175.27;61.57;;;8.20;99.90;;;;;;5029225;28;20044;-48
2023/02/23 07:24:05;;;;;;;183.97;61.20;;;8.20;99.90;;;;;;5029685;28;20037;-50
2023/02/23 07:26:32;;;;;;;165.50;57.72;;;8.20;99.90;;;;;;5029847;28;20037;-52
2023/02/23 07:28:58;;;;;;;163.00;56.23;;;8.10;99.90;;;;;;5029688;28;20025;-53
2023/02/23 07:31:25;;;;;;;163.60;56.37;;;8.20;99.90;;;;;;5016715;28;20136;-51
2023/02/23 07:33:53;;;;;;;151.43;55.63;;;8.20;99.90;;;;;;5009197;28;20041;-51
2023/02/23 07:36:20;;;;;;;153.77;55.77;;;8.20;99.90;;;;;;5008321;28;20034;-55
2023/02/23 07:38:46;;;;;;;163.73;57.00;;;8.10;99.90;;;;;;5009413;28;20029;-50
2023/02/23 07:41:12;;;;;;;162.33;56.03;;;8.10;99.90;;;;;;5009453;28;20041;-53
2023/02/23 07:43:37;;;;;;;165.80;57.03;;;8.10;99.90;;;;;;5009193;28;20426;-51
2023/02/23 07:46:03;;;;;;;160.43;56.40;;;8.10;99.90;;;;;;5009382;28;20030;-55
2023/02/23 07:48:29;;;;;;;165.40;55.87;;;8.10;99.90;;;;;;5008820;28;20076;-55
2023/02/23 07:50:55;;;;;;;152.50;52.93;;;8.00;99.90;;;;;;5008394;28;20037;-54
2023/02/23 07:53:20;;;;;;;164.20;53.63;;;8.00;99.90;;;;;;5009346;28;20068;-52
2023/02/23 07:55:55;;;;;;;166.03;56.17;;;8.00;99.90;;;;;;5009181;28;20026;-53
2023/02/23 07:58:20;;;;;;;166.67;54.87;;;8.00;99.90;;;;;;5008877;28;20044;-53
2023/02/23 08:00:46;;;;;;;172.10;55.13;;;8.00;99.90;;;;;;5008910;28;20030;-52
2023/02/23 08:03:12;;;;;;;167.30;54.93;;;8.00;99.90;;;;;;5008932;28;20505;-55
2023/02/23 08:05:38;;;;;;;173.37;56.20;;;8.00;99.90;;;;;;5007889;28;20029;-51
2023/02/23 08:08:05;;;;;;;168.30;55.90;;;8.10;99.90;;;;;;5008772;28;20050;-55
2023/02/23 08:10:30;;;;;;;168.43;54.67;;;8.00;99.90;;;;;;4991028;28;20418;-44
2023/02/23 08:12:57;;;;;;;160.33;54.53;;;8.10;99.90;;;;;;5008875;28;20029;-45
2023/02/23 08:15:24;;;;;;;156.73;55.17;;;8.20;99.90;;;;;;5008600;28;20030;-46
2023/02/23 08:17:50;;;;;;;143.50;52.50;;;8.10;99.90;;;;;;5008252;28;20466;-47
2023/02/23 08:20:15;;;;;;;145.67;54.43;;;8.20;99.90;;;;;;5007732;28;20022;-44
2023/02/23 08:22:42;;;;;;;143.23;54.03;;;8.20;99.90;;;;;;5008793;28;20453;-45
2023/02/23 08:25:08;;;;;;;143.93;51.90;;;8.20;99.90;;;;;;5008242;28;20509;-45
2023/02/23 08:27:35;;;;;;;141.90;53.80;;;8.20;99.90;;;;;;5008496;28;20034;-50
2023/02/23 08:30:04;;;;;;;139.67;50.87;;;8.20;99.90;;;;;;4990705;28;20038;-50
2023/02/23 08:32:36;;;;;;;138.43;51.60;;;8.30;99.90;;;;;;5008576;28;20087;-50
2023/02/23 08:35:02;;;;;;;143.70;50.57;;;8.30;99.90;;;;;;5006995;28;20026;-50
2023/02/23 08:37:28;;;;;;;130.97;49.40;;;8.30;99.90;;;;;;5008394;28;20153;-52
2023/02/23 08:39:55;;;;;;;120.07;48.47;;;8.30;99.90;;;;;;5008423;28;20300;-52
2023/02/23 08:42:21;;;;;;;115.67;48.17;;;8.40;99.90;;;;;;5008954;28;20101;-54
2023/02/23 08:44:48;;;;;;;117.23;47.10;;;8.50;99.90;;;;;;5008255;28;20164;-52
2023/02/23 08:47:22;;;;;;;121.33;47.87;;;8.50;99.90;;;;;;5008815;28;20037;-50
2023/02/23 08:49:48;;;;;;;121.87;47.07;;;8.50;99.90;;;;;;5007263;28;20037;-54
2023/02/23 08:52:14;;;;;;;112.67;47.00;;;8.60;99.90;;;;;;5008886;28;20034;-51
2023/02/23 08:54:39;;;;;;;119.30;47.50;;;8.60;99.90;;;;;;5008124;28;20352;-51
2023/02/23 08:57:05;;;;;;;114.63;47.57;;;8.70;99.90;;;;;;5010076;28;20037;-53
2023/02/23 08:59:31;;;;;;;113.33;46.60;;;8.60;99.90;;;;;;5011682;28;20107;-53
2023/02/23 09:01:56;;;;;;;122.87;48.77;;;8.50;99.90;;;;;;5012341;28;20407;-55
2023/02/23 09:04:22;;;;;;;118.03;48.17;;;8.60;99.90;;;;;;5010898;28;20034;-54
2023/02/23 09:06:49;;;;;;;113.00;46.50;;;8.70;99.90;;;;;;5012017;28;20058;-54
2023/02/23 09:09:15;;;;;;;112.27;46.97;;;8.70;99.90;;;;;;5011898;28;20091;-52
2023/02/23 09:11:41;;;;;;;112.63;46.77;;;8.70;99.90;;;;;;5012067;28;20030;-54
2023/02/23 09:14:07;;;;;;;112.10;44.40;;;8.60;99.90;;;;;;5011696;28;20037;-54
2023/02/23 09:16:34;;;;;;;107.97;42.80;;;8.50;99.90;;;;;;5011737;28;20458;-53
2023/02/23 09:19:01;;;;;;;94.77;40.03;;;8.50;99.90;;;;;;5011678;28;20072;-51
2023/02/23 09:21:28;;;;;;;91.73;38.80;;;8.50;99.90;;;;;;5011326;28;20066;-54
2023/02/23 09:23:55;;;;;;;99.10;38.87;;;8.40;99.90;;;;;;5011896;28;20049;-55
2023/02/23 09:26:22;;;;;;;102.17;40.40;;;8.30;99.90;;;;;;5011214;28;20441;-55
2023/02/23 09:28:49;;;;;;;92.87;38.70;;;8.30;99.90;;;;;;5011881;28;20091;-52
2023/02/23 09:31:18;;;;;;;85.33;35.33;;;8.30;99.90;;;;;;5011531;28;20065;-54
2023/02/23 09:33:43;;;;;;;86.30;34.33;;;8.40;99.90;;;;;;5011740;28;20371;-54
2023/02/23 09:36:15;;;;;;;86.27;35.60;;;8.50;99.90;;;;;;5010526;28;20088;-55
2023/02/23 09:38:42;;;;;;;82.00;33.97;;;8.60;99.90;;;;;;5011476;28;20088;-59
2023/02/23 09:41:24;;;;;;;88.63;36.17;;;8.70;99.90;;;;;;5011258;28;20034;-54
2023/02/23 09:43:58;;;;;;;98.87;40.13;;;8.80;99.90;;;;;;5011569;28;20371;-56
2023/02/23 09:46:37;;;;;;;102.20;40.47;;;8.80;99.90;;;;;;5011115;28;20068;-56
2023/02/23 09:49:10;;;;;;;86.80;38.40;;;8.80;99.90;;;;;;5011051;28;20033;-58
2023/02/23 09:51:40;;;;;;;91.77;37.63;;;8.80;99.90;;;;;;5010370;28;20034;-51
2023/02/23 09:54:11;;;;;;;96.67;39.33;;;8.90;99.90;;;;;;5011193;28;20517;-53
2023/02/23 09:56:46;;;;;;;83.40;36.47;;;9.00;99.90;;;;;;5011018;28;20034;-50
2023/02/23 09:59:15;;;;;;;84.77;37.20;;;9.00;99.90;;;;;;5011172;28;20375;-51
2023/02/23 10:02:07;;;;;;;91.38;38.28;;;8.90;99.90;;;;;;5011356;28;20041;-52
2023/02/23 10:04:43;;;;;;;91.37;37.70;;;8.90;99.90;;;;;;5010057;28;20327;-49
2023/02/23 10:07:39;;;;;;;91.23;37.17;;;8.90;99.90;;;;;;5010812;28;20165;-51
2023/02/23 10:10:37;;;;;;;95.77;38.13;;;8.70;99.90;;;;;;5011157;28;20046;-49
2023/02/23 10:13:10;;;;;;;86.27;35.97;;;8.60;99.90;;;;;;5011485;28;20065;-53
2023/02/23 10:15:45;;;;;;;87.30;34.57;;;8.60;99.90;;;;;;5011005;28;20037;-54
2023/02/23 10:18:17;;;;;;;85.03;35.17;;;8.50;99.90;;;;;;5011103;28;20339;-50
2023/02/23 10:20:49;;;;;;;87.27;35.10;;;8.60;99.90;;;;;;5009736;28;20025;-53
2023/02/23 10:23:39;;;;;;;83.50;35.87;;;8.70;99.90;;;;;;4994005;28;20030;-54
2023/02/23 10:26:07;;;;;;;84.27;35.03;;;8.70;99.90;;;;;;4972536;28;20399;-53
2023/02/23 10:28:35;;;;;;;77.10;33.60;;;8.70;99.90;;;;;;5025546;28;20017;-54
2023/02/23 10:31:06;;;;;;;76.33;33.03;;;8.70;99.90;;;;;;5029733;28;20030;-52
2023/02/23 10:33:37;;;;;;;72.93;31.63;;;8.70;99.90;;;;;;5030173;28;20184;-49
2023/02/23 10:36:16;;;;;;;79.00;32.73;;;8.70;99.90;;;;;;5029629;28;20037;-53
2023/02/23 10:38:41;;;;;;;78.07;31.63;;;8.60;99.90;;;;;;5030421;28;20104;-50
2023/02/23 10:41:08;;;;;;;76.30;32.00;;;8.60;99.90;;;;;;5029837;28;20553;-53
2023/02/23 10:43:34;;;;;;;74.17;31.27;;;8.60;99.90;;;;;;5030125;28;20287;-52
2023/02/23 10:46:01;;;;;;;82.77;33.43;;;8.60;99.90;;;;;;5030424;28;20108;-53
2023/02/23 10:48:34;;;;;;;81.70;34.60;;;8.60;99.90;;;;;;5030219;28;20047;-49
2023/02/23 10:51:04;;;;;;;80.47;32.90;;;8.60;99.90;;;;;;5029109;28;20037;-54
2023/02/23 10:53:36;;;;;;;79.40;34.40;;;8.70;99.90;;;;;;5030277;28;20033;-52
2023/02/23 10:56:12;;;;;;;81.83;34.77;;;8.80;99.90;;;;;;5029960;28;20063;-51
2023/02/23 10:58:45;;;;;;;78.80;33.27;;;8.70;99.90;;;;;;5011700;28;20046;-53
2023/02/23 11:01:37;;;;;;;79.57;33.97;;;8.60;99.90;;;;;;5029954;28;20029;-51
2023/02/23 11:04:17;;;;;;;72.73;30.73;;;8.60;99.90;;;;;;5022225;28;20487;-53
2023/02/23 11:06:43;;;;;;;71.45;30.17;;;8.50;99.90;;;;;;5029704;28;20067;-53
2023/02/23 11:09:30;;;;;;;72.17;29.23;;;8.40;99.90;;;;;;5012034;28;20531;-54
2023/02/23 11:11:57;;;;;;;65.07;28.30;;;8.40;99.90;;;;;;5029747;28;20148;-52
2023/02/23 11:14:28;;;;;;;62.60;27.87;;;8.30;99.90;;;;;;5029365;28;20458;-54
2023/02/23 11:16:56;;;;;;;67.90;28.30;;;8.20;99.90;;;;;;5029626;28;20371;-53
2023/02/23 11:19:42;;;;;;;63.37;27.80;;;8.20;99.90;;;;;;5027699;28;20076;-53
2023/02/23 11:22:22;;;;;;;71.17;28.73;;;8.20;99.90;;;;;;5029516;28;20042;-54
2023/02/23 11:24:48;;;;;;;66.83;28.37;;;8.20;99.90;;;;;;5029140;28;20025;-54
2023/02/23 11:27:24;;;;;;;67.33;29.23;;;8.40;99.90;;;;;;5011219;28;20053;-55
2023/02/23 11:29:53;;;;;;;66.33;27.87;;;8.50;99.90;;;;;;5029367;28;20064;-56
2023/02/23 11:32:30;;;;;;;64.70;27.65;;;8.50;99.90;;;;;;5029189;28;20044;-54
2023/02/23 11:35:11;;;;;;;57.57;26.47;;;8.50;99.90;;;;;;5028047;28;20039;-55
2023/02/23 11:37:37;;;;;;;57.13;25.23;;;8.60;99.90;;;;;;5028899;28;20095;-52
2023/02/23 11:40:23;;;;;;;56.90;24.03;;;8.60;99.90;;;;;;5029174;28;20037;-56
2023/02/23 11:43:06;;;;;;;49.17;23.57;;;8.70;99.90;;;;;;5029314;28;20037;-54
2023/02/23 11:45:43;;;;;;;53.97;24.00;;;8.80;99.90;;;;;;5029019;28;20049;-55
2023/02/23 11:48:21;;;;;;;55.07;26.00;;;8.80;99.90;;;;;;5010406;28;20038;-54
2023/02/23 11:50:48;;;;;;;52.67;24.93;;;8.90;99.90;;;;;;5012228;28;20048;-51
2023/02/23 11:53:18;;;;;;;53.60;23.83;;;9.00;99.90;;;;;;5000025;28;20309;-53
2023/02/23 11:55:53;;;;;;;53.67;24.10;;;8.90;99.90;;;;;;5029374;28;20026;-54
2023/02/23 11:58:37;;;;;;;55.47;24.03;;;8.80;99.90;;;;;;5028406;28;20029;-56
2023/02/23 12:01:13;;;;;;;58.97;25.07;;;8.80;99.90;;;;;;5029407;28;20041;-55
2023/02/23 12:03:46;;;;;;;55.93;23.57;;;8.70;99.90;;;;;;5028814;28;20044;-55
2023/02/23 12:06:25;;;;;;;55.30;24.07;;;8.80;99.90;;;;;;5028596;28;20053;-52
2023/02/23 12:08:55;;;;;;;48.78;22.92;;;8.80;99.90;;;;;;5029080;28;20526;-55
2023/02/23 12:11:26;;;;;;;50.07;22.93;;;8.70;99.90;;;;;;5029010;28;20029;-54
2023/02/23 12:14:06;;;;;;;44.87;20.47;;;8.60;99.90;;;;;;5028984;28;20037;-53
2023/02/23 12:16:38;;;;;;;43.77;18.97;;;8.60;99.90;;;;;;5028316;28;20025;-54
2023/02/23 12:19:19;;;;;;;43.37;19.70;;;8.70;99.90;;;;;;5028777;28;20037;-51
2023/02/23 12:22:15;;;;;;;36.57;17.13;;;8.60;99.90;;;;;;5027546;28;20462;-51
2023/02/23 12:24:41;;;;;;;36.07;17.50;;;8.70;99.90;;;;;;5020600;28;20045;-51
2023/02/23 12:27:17;;;;;;;38.23;18.23;;;8.70;99.90;;;;;;5028168;28;20355;-53
2023/02/23 12:29:51;;;;;;;39.47;18.13;;;8.60;99.90;;;;;;5028743;28;20114;-52
2023/02/23 12:32:38;;;;;;;36.93;17.60;;;8.60;99.90;;;;;;5032741;28;20036;-53
2023/02/23 12:35:15;;;;;;;37.77;17.93;;;8.50;99.90;;;;;;5032911;28;20029;-53
2023/02/23 12:37:48;;;;;;;41.10;19.00;;;8.60;99.90;;;;;;5031367;28;20064;-53
2023/02/23 12:40:26;;;;;;;37.13;18.30;;;8.60;99.90;;;;;;5032713;28;20083;-53
2023/02/23 12:43:10;;;;;;;35.60;16.93;;;8.60;99.90;;;;;;5032958;28;20037;-52
2023/02/23 12:45:51;;;;;;;38.87;17.90;;;8.70;99.90;;;;;;5032386;28;20033;-52
2023/02/23 12:48:30;;;;;;;37.47;17.63;;;8.70;99.90;;;;;;5032672;28;20037;-56
2023/02/23 12:50:59;;;;;;;38.08;17.80;;;8.60;99.90;;;;;;5030210;28;20065;-54
2023/02/23 12:53:41;;;;;;;34.85;17.85;;;8.70;99.90;;;;;;5032577;28;20123;-53
2023/02/23 12:56:24;;;;;;;36.77;17.67;;;8.70;99.90;;;;;;5031256;28;20037;-53
2023/02/23 12:59:13;;;;;;;40.33;18.13;;;8.60;99.90;;;;;;5032344;28;20355;-54
2023/02/23 13:01:47;;;;;;;40.87;18.40;;;8.60;99.90;;;;;;5032204;28;20036;-53
2023/02/23 13:04:32;;;;;;;36.80;18.83;;;8.60;99.90;;;;;;5032299;28;20448;-54
2023/02/23 13:07:16;;;;;;;34.80;17.13;;;8.80;99.90;;;;;;5030727;28;20041;-52
2023/02/23 13:10:13;;;;;;;36.27;18.13;;;8.90;99.90;;;;;;5032465;28;20064;-52
2023/02/23 13:12:54;;;;;;;35.90;17.00;;;8.90;99.90;;;;;;5031973;28;20058;-56
2023/02/23 13:15:52;;;;;;;35.60;17.13;;;8.90;99.90;;;;;;5032412;28;20100;-53
2023/02/23 13:18:33;;;;;;;33.83;17.03;;;9.00;99.90;;;;;;5014179;28;20034;-52
2023/02/23 13:21:21;;;;;;;38.23;18.63;;;9.00;99.90;;;;;;5030806;28;20045;-52
2023/02/23 13:24:11;;;;;;;35.37;17.03;;;8.90;99.90;;;;;;5031974;28;20032;-51
2023/02/23 13:27:09;;;;;;;36.83;17.67;;;9.00;99.90;;;;;;5031181;28;20570;-45
2023/02/23 13:29:47;;;;;;;33.73;17.43;;;9.00;99.90;;;;;;5032086;28;20041;-47
2023/02/23 13:32:18;;;;;;;36.83;16.97;;;9.00;99.90;;;;;;5031528;28;20132;-51
2023/02/23 13:34:56;;;;;;;38.53;18.33;;;9.00;99.90;;;;;;5031983;28;20378;-45
2023/02/23 13:37:42;;;;;;;37.13;17.38;;;9.00;99.90;;;;;;5030274;28;20094;-53
2023/02/23 13:40:15;;;;;;;34.83;17.40;;;9.00;99.90;;;;;;5031879;28;20136;-51
2023/02/23 13:43:16;;;;;;;36.03;17.93;;;9.00;99.90;;;;;;5031192;28;20109;-51
2023/02/23 13:46:06;;;;;;;35.43;16.63;;;9.00;99.90;;;;;;5031217;28;20064;-52
2023/02/23 13:48:40;;;;;;;36.80;17.37;;;8.90;99.90;;;;;;5031394;28;20050;-52
2023/02/23 13:51:29;;;;;;;35.70;16.63;;;8.80;99.90;;;;;;5030035;28;20029;-51
2023/02/23 13:53:59;;;;;;;35.80;15.63;;;8.90;99.90;;;;;;5031638;28;20034;-52
2023/02/23 13:56:28;;;;;;;37.47;16.87;;;8.90;99.90;;;;;;5031207;28;20072;-53
2023/02/23 13:59:08;;;;;;;36.75;16.88;;;8.90;99.90;;;;;;5031879;28;20113;-49
2023/02/23 14:01:43;;;;;;;32.97;14.90;;;9.00;99.90;;;;;;5031278;28;20041;-54
2023/02/23 14:04:15;;;;;;;38.37;17.30;;;8.90;99.90;;;;;;5030700;28;20029;-51
2023/02/23 14:07:10;;;;;;;37.37;17.17;;;9.00;99.90;;;;;;5029849;28;20464;-52
2023/02/23 14:09:42;;;;;;;35.17;16.43;;;9.00;99.90;;;;;;5030967;28;20041;-49
2023/02/23 14:12:37;;;;;;;46.43;18.60;;;8.90;99.90;;;;;;5031024;28;20041;-51